Time;durP1;ratioP1;P1;durP2;ratioP2;P2;SDS_P1;SDS_P2;PMS_P1;PMS_P2;Temp;Humidity;BMP_temperature;BMP_pressure;BME280_temperature;BME280_humidity;BME280_pressure;Samples;Min_cycle;Max_cycle;Signal;HPM_P1;HPM_P2
2024/01/15 00:00:38;;;;;;;45.75;25.05;;;4.10;79.50;;;;;;5048201;28;20742;-56
2024/01/15 00:03:05;;;;;;;43.13;23.08;;;4.10;79.50;;;;;;5050405;28;20048;-57
2024/01/15 00:05:34;;;;;;;41.35;23.42;;;4.10;79.60;;;;;;5048188;28;20041;-53
2024/01/15 00:08:03;;;;;;;41.40;24.42;;;4.10;79.60;;;;;;5032014;28;20048;-55
2024/01/15 00:10:30;;;;;;;42.35;23.45;;;4.10;79.70;;;;;;5048052;28;20060;-57
2024/01/15 00:12:58;;;;;;;40.65;23.60;;;4.10;79.70;;;;;;5041362;28;20124;-54
2024/01/15 00:15:28;;;;;;;42.78;24.65;;;4.10;79.60;;;;;;5053685;28;20053;-53
2024/01/15 00:17:59;;;;;;;43.40;24.27;;;4.10;79.60;;;;;;5050510;28;20040;-57
2024/01/15 00:20:35;;;;;;;38.95;21.85;;;4.10;79.50;;;;;;5044729;28;20060;-58
2024/01/15 00:23:02;;;;;;;37.83;21.95;;;4.10;79.50;;;;;;5050367;28;20557;-56
2024/01/15 00:25:34;;;;;;;36.10;18.67;;;4.10;79.60;;;;;;5049132;28;20047;-57
2024/01/15 00:28:04;;;;;;;35.60;19.30;;;4.10;79.60;;;;;;5047954;28;20088;-56
2024/01/15 00:30:30;;;;;;;36.25;19.05;;;4.10;79.60;;;;;;5049135;28;20045;-57
2024/01/15 00:32:59;;;;;;;35.42;19.02;;;4.10;79.70;;;;;;5049955;28;20041;-55
2024/01/15 00:35:28;;;;;;;38.20;19.38;;;4.10;79.80;;;;;;5048247;28;20037;-56
2024/01/15 00:37:59;;;;;;;36.88;18.88;;;4.10;79.90;;;;;;5047957;28;20069;-56
2024/01/15 00:40:25;;;;;;;35.88;18.15;;;4.10;80.00;;;;;;5030009;28;20102;-56
2024/01/15 00:42:54;;;;;;;35.47;18.25;;;4.10;80.10;;;;;;5044174;28;20044;-56
2024/01/15 00:45:32;;;;;;;36.83;19.50;;;4.10;80.10;;;;;;5042772;28;20045;-56
2024/01/15 00:48:02;;;;;;;35.15;20.00;;;4.10;80.00;;;;;;5049972;28;20037;-57
2024/01/15 00:50:29;;;;;;;35.17;18.83;;;4.10;80.00;;;;;;5030785;28;20090;-57
2024/01/15 00:52:58;;;;;;;36.85;18.67;;;4.10;80.10;;;;;;5046232;28;20098;-57
2024/01/15 00:55:25;;;;;;;36.90;17.90;;;4.10;80.10;;;;;;5048062;28;20044;-56
2024/01/15 00:57:52;;;;;;;32.50;18.05;;;4.20;80.20;;;;;;5048894;28;20045;-57
2024/01/15 01:00:21;;;;;;;37.00;19.83;;;4.20;80.30;;;;;;5048743;28;20120;-56
2024/01/15 01:02:50;;;;;;;32.40;17.02;;;4.20;80.40;;;;;;5044349;28;20041;-57
2024/01/15 01:05:19;;;;;;;33.53;17.90;;;4.20;80.40;;;;;;5046848;28;20580;-55
2024/01/15 01:07:48;;;;;;;38.90;18.73;;;4.20;80.30;;;;;;5056912;28;20054;-57
2024/01/15 01:10:21;;;;;;;30.38;16.67;;;4.20;80.30;;;;;;5044893;28;20042;-54
2024/01/15 01:12:48;;;;;;;26.88;16.58;;;4.30;80.40;;;;;;5048758;28;20058;-57
2024/01/15 01:15:21;;;;;;;33.70;17.75;;;4.20;80.30;;;;;;5051040;28;20045;-55
2024/01/15 01:17:48;;;;;;;26.17;15.60;;;4.30;80.40;;;;;;5049239;28;20041;-54
2024/01/15 01:20:16;;;;;;;28.50;15.57;;;4.30;80.30;;;;;;5028007;28;20056;-57
2024/01/15 01:22:49;;;;;;;27.75;15.68;;;4.30;80.30;;;;;;5043007;28;20095;-57
2024/01/15 01:25:15;;;;;;;29.92;16.15;;;4.30;80.30;;;;;;5045382;28;20130;-57
2024/01/15 01:27:45;;;;;;;26.42;14.93;;;4.30;80.40;;;;;;5041232;28;20041;-56
2024/01/15 01:30:14;;;;;;;23.92;15.35;;;4.30;80.30;;;;;;5048991;28;20037;-57
2024/01/15 01:32:41;;;;;;;25.38;15.50;;;4.40;80.30;;;;;;5047476;28;20033;-57
2024/01/15 01:35:13;;;;;;;29.40;15.85;;;4.40;80.30;;;;;;5048312;28;20063;-55
2024/01/15 01:37:42;;;;;;;28.13;16.13;;;4.40;80.30;;;;;;5049401;28;20119;-56
2024/01/15 01:40:10;;;;;;;26.17;16.08;;;4.40;80.30;;;;;;5049129;28;20560;-57
2024/01/15 01:42:36;;;;;;;29.45;17.00;;;4.40;80.40;;;;;;5054621;28;20072;-54
2024/01/15 01:45:06;;;;;;;27.15;15.80;;;4.40;80.40;;;;;;5050997;28;20092;-55
2024/01/15 01:47:35;;;;;;;29.20;16.65;;;4.40;80.40;;;;;;5052094;28;20045;-57
2024/01/15 01:50:02;;;;;;;27.65;16.38;;;4.40;80.30;;;;;;5034907;28;20037;-57
2024/01/15 01:52:37;;;;;;;29.70;16.25;;;4.40;80.40;;;;;;5053384;28;20068;-55
2024/01/15 01:55:10;;;;;;;30.20;16.10;;;4.40;80.40;;;;;;5051263;28;20642;-56
2024/01/15 01:57:47;;;;;;;27.10;16.58;;;4.40;80.30;;;;;;5036594;28;20048;-56
2024/01/15 02:00:16;;;;;;;28.13;14.63;;;4.40;80.30;;;;;;5052979;28;20048;-56
2024/01/15 02:02:48;;;;;;;32.78;17.00;;;4.40;80.20;;;;;;5045795;28;20040;-56
2024/01/15 02:05:19;;;;;;;29.25;16.48;;;4.40;80.30;;;;;;5051354;28;20037;-58
2024/01/15 02:07:46;;;;;;;26.55;15.40;;;4.50;80.30;;;;;;5054023;28;20044;-57
2024/01/15 02:10:14;;;;;;;24.77;15.23;;;4.50;80.20;;;;;;5051212;28;20041;-56
2024/01/15 02:12:44;;;;;;;25.30;14.43;;;4.50;80.20;;;;;;5041543;28;20044;-56
2024/01/15 02:15:12;;;;;;;25.00;14.63;;;4.40;80.10;;;;;;5052395;28;20049;-57
2024/01/15 02:18:06;;;;;;;22.83;13.35;;;4.40;80.10;;;;;;5044579;28;20045;-58
2024/01/15 02:20:37;;;;;;;18.65;12.55;;;4.40;80.40;;;;;;5048267;28;20476;-56
2024/01/15 02:23:14;;;;;;;19.35;12.45;;;4.50;80.20;;;;;;5052788;28;20061;-57
2024/01/15 02:25:49;;;;;;;20.00;12.57;;;4.50;80.40;;;;;;5050830;28;20094;-58
2024/01/15 02:28:23;;;;;;;20.45;12.63;;;4.50;80.30;;;;;;5047244;28;20099;-57
2024/01/15 02:30:53;;;;;;;20.40;11.93;;;4.50;80.30;;;;;;5051603;28;20068;-56
2024/01/15 02:33:25;;;;;;;20.83;13.52;;;4.50;80.30;;;;;;5052471;28;20117;-58
2024/01/15 02:35:51;;;;;;;21.55;12.85;;;4.50;80.30;;;;;;5052376;28;20045;-58
2024/01/15 02:38:21;;;;;;;22.27;12.85;;;4.50;80.30;;;;;;5049846;28;20408;-57
2024/01/15 02:40:47;;;;;;;19.65;12.57;;;4.50;80.30;;;;;;5050124;28;20072;-56
2024/01/15 02:43:18;;;;;;;20.40;12.75;;;4.50;80.30;;;;;;5052909;28;20044;-58
2024/01/15 02:45:51;;;;;;;18.45;12.50;;;4.50;80.30;;;;;;5047139;28;20049;-56
2024/01/15 02:48:18;;;;;;;19.60;11.60;;;4.50;80.30;;;;;;5051937;28;20044;-58
2024/01/15 02:50:47;;;;;;;18.88;12.02;;;4.60;80.30;;;;;;5045843;28;20048;-58
2024/01/15 02:53:19;;;;;;;20.75;12.90;;;4.50;80.30;;;;;;5052424;28;20037;-58
2024/01/15 02:55:46;;;;;;;22.63;13.13;;;4.60;80.30;;;;;;5045678;28;20106;-57
2024/01/15 02:58:14;;;;;;;20.40;13.88;;;4.60;80.20;;;;;;5051835;28;20598;-56
2024/01/15 03:00:54;;;;;;;21.30;14.23;;;4.60;80.10;;;;;;5045519;28;20040;-58
2024/01/15 03:03:21;;;;;;;18.55;13.88;;;4.60;80.10;;;;;;5051881;28;20086;-57
2024/01/15 03:05:53;;;;;;;22.77;13.15;;;4.60;80.10;;;;;;5051035;28;20123;-56
2024/01/15 03:08:24;;;;;;;20.50;12.73;;;4.60;80.10;;;;;;5052439;28;20040;-57
2024/01/15 03:10:56;;;;;;;16.98;9.85;;;4.60;80.10;;;;;;5047973;28;20037;-56
2024/01/15 03:13:27;;;;;;;21.80;13.53;;;4.60;80.50;;;;;;5051884;28;20037;-57
2024/01/15 03:15:54;;;;;;;17.33;11.98;;;4.60;80.10;;;;;;5052253;28;20056;-57
2024/01/15 03:18:23;;;;;;;21.55;12.20;;;4.60;80.10;;;;;;5050371;28;20041;-55
2024/01/15 03:20:52;;;;;;;21.30;12.48;;;4.60;80.10;;;;;;5047662;28;20410;-57
2024/01/15 03:23:18;;;;;;;18.65;11.98;;;4.60;80.10;;;;;;5052207;28;20072;-56
2024/01/15 03:25:45;;;;;;;17.38;11.63;;;4.60;80.00;;;;;;5051125;28;20091;-56
2024/01/15 03:28:12;;;;;;;17.77;13.30;;;4.60;79.80;;;;;;5051258;28;20091;-56
2024/01/15 03:30:41;;;;;;;19.27;12.75;;;4.60;79.80;;;;;;5031922;28;20041;-57
2024/01/15 03:33:08;;;;;;;21.73;12.35;;;4.60;79.80;;;;;;5051474;28;20112;-56
2024/01/15 03:35:35;;;;;;;18.25;12.60;;;4.60;79.80;;;;;;5051535;28;20040;-57
2024/01/15 03:38:02;;;;;;;20.38;13.25;;;4.60;79.80;;;;;;5055751;28;20040;-57
2024/01/15 03:40:31;;;;;;;20.63;12.88;;;4.60;79.80;;;;;;5048238;28;20072;-55
2024/01/15 03:43:00;;;;;;;19.15;11.70;;;4.60;79.80;;;;;;5046703;28;20037;-57
2024/01/15 03:45:29;;;;;;;16.75;10.73;;;4.60;80.50;;;;;;5033202;28;20041;-57
2024/01/15 03:47:59;;;;;;;17.67;11.05;;;4.60;79.80;;;;;;5050692;28;20052;-57
2024/01/15 03:50:26;;;;;;;14.65;10.05;;;4.60;79.80;;;;;;5045862;28;20039;-56
2024/01/15 03:52:52;;;;;;;18.63;10.27;;;4.60;79.80;;;;;;5051180;28;20073;-57
2024/01/15 03:55:19;;;;;;;17.88;10.77;;;4.60;79.80;;;;;;5050433;28;20048;-56
2024/01/15 03:57:46;;;;;;;14.98;10.85;;;4.60;79.80;;;;;;5050860;28;20037;-55
2024/01/15 04:00:17;;;;;;;14.73;9.48;;;4.60;79.80;;;;;;5045140;28;20140;-57
2024/01/15 04:02:47;;;;;;;15.05;10.18;;;4.60;79.80;;;;;;5049834;28;20052;-56
2024/01/15 04:05:16;;;;;;;17.13;10.40;;;4.60;79.90;;;;;;5050258;28;20048;-57
2024/01/15 04:07:43;;;;;;;15.45;10.25;;;4.60;79.90;;;;;;5053559;28;20087;-56
2024/01/15 04:10:12;;;;;;;17.63;10.73;;;4.70;79.90;;;;;;5046938;28;20086;-57
2024/01/15 04:12:50;;;;;;;13.45;9.82;;;4.60;79.80;;;;;;5038202;28;20446;-57
2024/01/15 04:15:20;;;;;;;16.63;10.00;;;4.60;79.70;;;;;;5050707;28;20041;-57
2024/01/15 04:17:46;;;;;;;19.55;11.35;;;4.60;79.60;;;;;;5050582;28;20044;-56
2024/01/15 04:20:14;;;;;;;16.15;10.00;;;4.60;79.60;;;;;;5031077;28;20056;-57
2024/01/15 04:22:47;;;;;;;15.02;10.05;;;4.60;79.70;;;;;;5050498;28;20118;-57
2024/01/15 04:25:18;;;;;;;15.75;9.48;;;4.60;79.80;;;;;;5050101;28;20491;-56
2024/01/15 04:27:47;;;;;;;17.30;9.67;;;4.60;79.80;;;;;;5049326;28;20052;-56
2024/01/15 04:30:14;;;;;;;12.77;8.75;;;4.60;79.80;;;;;;5035812;28;20335;-56
2024/01/15 04:32:41;;;;;;;14.10;9.23;;;4.60;80.50;;;;;;5052074;28;20040;-55
2024/01/15 04:35:12;;;;;;;15.73;9.57;;;4.60;80.00;;;;;;5050513;28;20047;-57
2024/01/15 04:37:41;;;;;;;14.68;10.48;;;4.70;80.00;;;;;;5053079;28;20056;-57
2024/01/15 04:40:09;;;;;;;13.27;8.93;;;4.70;79.90;;;;;;5043903;28;20069;-55
2024/01/15 04:42:45;;;;;;;11.73;8.95;;;4.70;79.90;;;;;;5048118;28;20045;-57
2024/01/15 04:45:12;;;;;;;15.30;9.55;;;4.70;79.90;;;;;;5049562;28;20041;-55
2024/01/15 04:47:45;;;;;;;10.95;9.13;;;4.70;79.80;;;;;;5049996;28;20115;-57
2024/01/15 04:50:12;;;;;;;13.52;8.05;;;4.70;79.80;;;;;;5046877;28;20037;-54
2024/01/15 04:52:43;;;;;;;11.95;7.53;;;4.70;79.70;;;;;;5050362;28;20523;-57
2024/01/15 04:55:10;;;;;;;11.73;7.70;;;4.70;79.60;;;;;;5048353;28;20053;-56
2024/01/15 04:57:41;;;;;;;10.35;7.72;;;4.70;79.50;;;;;;5049804;28;20527;-57
2024/01/15 05:00:08;;;;;;;9.13;6.55;;;4.70;79.40;;;;;;5031292;28;20052;-57
2024/01/15 05:02:35;;;;;;;13.80;7.40;;;4.70;79.30;;;;;;5049765;28;20093;-57
2024/01/15 05:05:02;;;;;;;11.07;6.22;;;4.70;79.30;;;;;;5032477;28;20041;-58
2024/01/15 05:07:29;;;;;;;9.95;6.03;;;4.70;79.40;;;;;;5047213;28;20516;-56
2024/01/15 05:09:55;;;;;;;11.13;6.47;;;4.60;79.50;;;;;;5049045;28;20463;-53
2024/01/15 05:12:25;;;;;;;9.27;7.03;;;4.60;79.60;;;;;;5047104;28;20040;-57
2024/01/15 05:14:51;;;;;;;13.45;8.35;;;4.60;79.70;;;;;;5051005;28;20094;-55
2024/01/15 05:17:24;;;;;;;14.23;8.70;;;4.60;79.70;;;;;;5053491;28;20064;-57
2024/01/15 05:19:51;;;;;;;14.00;9.17;;;4.70;79.80;;;;;;5049948;28;20033;-55
2024/01/15 05:22:19;;;;;;;11.88;9.57;;;4.60;79.80;;;;;;5036683;28;20055;-55
2024/01/15 05:24:48;;;;;;;13.60;9.40;;;4.70;79.90;;;;;;5055093;28;20071;-57
2024/01/15 05:27:15;;;;;;;12.88;8.38;;;4.70;79.80;;;;;;5048935;28;20045;-55
2024/01/15 05:29:41;;;;;;;10.73;7.90;;;4.70;79.80;;;;;;5047242;28;20053;-57
2024/01/15 05:32:08;;;;;;;10.50;8.20;;;4.70;79.80;;;;;;5051291;28;20120;-57
2024/01/15 05:34:35;;;;;;;12.68;7.10;;;4.70;79.80;;;;;;5056679;28;20055;-58
2024/01/15 05:37:02;;;;;;;14.18;8.45;;;4.70;79.80;;;;;;5054258;28;20106;-57
2024/01/15 05:39:28;;;;;;;10.40;7.95;;;4.70;79.80;;;;;;5052887;28;20076;-56
2024/01/15 05:41:55;;;;;;;10.65;6.57;;;4.70;79.80;;;;;;5045832;28;20056;-57
2024/01/15 05:44:22;;;;;;;9.20;6.88;;;4.70;79.60;;;;;;5061158;28;20071;-55
2024/01/15 05:46:48;;;;;;;12.93;8.10;;;4.70;79.60;;;;;;5050403;28;20084;-57
2024/01/15 05:49:17;;;;;;;10.57;7.13;;;4.70;79.40;;;;;;5055861;28;20526;-57
2024/01/15 05:51:44;;;;;;;10.27;7.32;;;4.70;79.40;;;;;;5051190;28;20132;-56
2024/01/15 05:54:11;;;;;;;9.50;7.35;;;4.70;79.40;;;;;;5067329;23;20045;-60
2024/01/15 05:56:38;;;;;;;11.00;8.43;;;4.70;79.40;;;;;;5044118;28;20046;-62
2024/01/15 05:59:05;;;;;;;11.00;8.25;;;4.70;79.50;;;;;;5045996;28;20072;-61
2024/01/15 06:01:31;;;;;;;15.38;9.43;;;4.70;79.50;;;;;;5039958;28;20069;-61
2024/01/15 06:03:58;;;;;;;12.88;9.75;;;4.70;79.50;;;;;;5027697;28;20046;-61
2024/01/15 06:06:26;;;;;;;13.10;8.93;;;4.70;79.60;;;;;;5023665;28;20058;-60
2024/01/15 06:08:59;;;;;;;11.93;8.25;;;4.70;79.70;;;;;;5023585;28;20164;-62
2024/01/15 06:11:30;;;;;;;12.07;8.55;;;4.70;79.70;;;;;;5023244;28;20033;-60
2024/01/15 06:13:57;;;;;;;14.05;9.07;;;4.70;79.80;;;;;;5031966;28;20557;-62
2024/01/15 06:16:23;;;;;;;13.38;8.80;;;4.70;79.70;;;;;;5029932;28;20624;-62
2024/01/15 06:18:50;;;;;;;13.38;8.70;;;4.70;79.80;;;;;;5027379;28;20095;-62
2024/01/15 06:21:17;;;;;;;12.43;8.32;;;4.60;79.80;;;;;;5026031;28;20132;-61
2024/01/15 06:23:44;;;;;;;13.13;8.63;;;4.70;79.80;;;;;;5028827;28;20673;-62
2024/01/15 06:26:13;;;;;;;14.05;8.48;;;4.70;79.80;;;;;;5026780;28;20045;-62
2024/01/15 06:28:40;;;;;;;12.10;8.38;;;4.70;79.80;;;;;;5024492;28;20053;-62
2024/01/15 06:31:07;;;;;;;14.95;9.50;;;4.70;79.80;;;;;;5028028;28;20562;-62
2024/01/15 06:33:34;;;;;;;17.35;9.48;;;4.70;79.80;;;;;;5029477;28;20522;-62
2024/01/15 06:36:05;;;;;;;17.27;10.38;;;4.70;79.80;;;;;;5028722;28;20144;-61
2024/01/15 06:38:32;;;;;;;20.25;10.07;;;4.70;79.80;;;;;;5029653;28;20045;-62
2024/01/15 06:40:58;;;;;;;14.88;9.15;;;4.70;79.80;;;;;;5026195;28;20470;-62
2024/01/15 06:43:25;;;;;;;13.52;8.80;;;4.70;79.80;;;;;;5028090;28;20128;-61
2024/01/15 06:45:53;;;;;;;14.85;8.63;;;4.70;79.80;;;;;;5028321;28;20220;-62
2024/01/15 06:48:20;;;;;;;14.52;8.63;;;4.70;79.80;;;;;;5028674;28;20041;-62
2024/01/15 06:50:47;;;;;;;14.02;8.73;;;4.70;79.80;;;;;;5025916;28;20462;-62
2024/01/15 06:53:13;;;;;;;13.50;8.00;;;4.70;79.80;;;;;;5028839;28;20126;-62
2024/01/15 06:55:40;;;;;;;12.27;7.55;;;4.70;79.80;;;;;;5008894;28;20132;-62
2024/01/15 06:58:10;;;;;;;12.50;8.70;;;4.70;80.40;;;;;;5027805;28;20092;-62
2024/01/15 07:00:37;;;;;;;11.32;7.70;;;4.70;79.80;;;;;;5027901;28;20100;-62
2024/01/15 07:03:07;;;;;;;10.55;7.15;;;4.70;79.80;;;;;;5033907;28;20851;-62
2024/01/15 07:05:34;;;;;;;14.63;9.18;;;4.70;79.80;;;;;;5025624;28;20045;-61
2024/01/15 07:08:00;;;;;;;13.43;8.07;;;4.70;79.90;;;;;;5026520;28;20446;-61
2024/01/15 07:10:27;;;;;;;12.85;7.85;;;4.70;79.80;;;;;;5013858;28;20621;-62
2024/01/15 07:12:54;;;;;;;13.25;8.75;;;4.70;79.80;;;;;;5036118;28;20041;-62
2024/01/15 07:15:21;;;;;;;11.40;8.27;;;4.70;79.90;;;;;;5032274;28;20044;-61
2024/01/15 07:17:48;;;;;;;13.70;9.05;;;4.70;79.80;;;;;;5023675;28;20045;-62
2024/01/15 07:20:15;;;;;;;15.35;9.00;;;4.70;79.70;;;;;;5031463;28;20049;-61
2024/01/15 07:22:42;;;;;;;12.57;9.05;;;4.70;79.60;;;;;;5030862;28;20124;-62
2024/01/15 07:25:09;;;;;;;12.82;9.13;;;4.70;79.60;;;;;;5032085;28;20550;-61
2024/01/15 07:27:35;;;;;;;13.93;9.50;;;4.70;79.60;;;;;;5022478;28;20049;-61
2024/01/15 07:30:05;;;;;;;12.02;9.27;;;4.70;79.70;;;;;;5022625;28;20124;-61
2024/01/15 07:32:33;;;;;;;17.83;11.02;;;4.70;79.70;;;;;;5034709;28;20041;-61
2024/01/15 07:35:00;;;;;;;16.33;10.98;;;4.70;79.30;;;;;;5006999;28;20044;-61
2024/01/15 07:37:27;;;;;;;17.63;11.20;;;4.70;79.20;;;;;;5033001;28;20064;-62
2024/01/15 07:39:53;;;;;;;17.85;11.15;;;4.70;79.10;;;;;;5034581;28;20107;-61
2024/01/15 07:42:20;;;;;;;16.83;11.70;;;4.60;79.00;;;;;;5027825;28;20045;-61
2024/01/15 07:44:47;;;;;;;18.73;11.85;;;4.60;78.90;;;;;;5023015;28;20041;-61
2024/01/15 07:47:14;;;;;;;17.33;11.15;;;4.60;78.80;;;;;;5032945;28;20042;-61
2024/01/15 07:49:40;;;;;;;15.48;10.60;;;4.50;78.80;;;;;;5028288;28;20053;-60
2024/01/15 07:52:07;;;;;;;14.13;10.60;;;4.50;78.90;;;;;;5035840;28;20492;-61
2024/01/15 07:54:34;;;;;;;15.32;10.20;;;4.50;79.10;;;;;;5024407;28;20041;-61
2024/01/15 07:57:03;;;;;;;19.13;11.88;;;4.40;79.30;;;;;;5031503;28;20068;-60
2024/01/15 07:59:30;;;;;;;15.15;10.35;;;4.40;80.10;;;;;;5005877;28;20108;-60
2024/01/15 08:01:59;;;;;;;18.05;10.93;;;4.40;79.70;;;;;;5027923;28;20045;-61
2024/01/15 08:04:25;;;;;;;17.13;11.30;;;4.40;79.70;;;;;;5025039;28;20829;-61
2024/01/15 08:06:56;;;;;;;14.25;10.10;;;4.40;79.80;;;;;;5023214;28;20451;-61
2024/01/15 08:09:25;;;;;;;12.55;9.88;;;4.30;79.90;;;;;;5028465;28;20053;-60
2024/01/15 08:11:52;;;;;;;14.55;10.25;;;4.40;80.00;;;;;;5020951;28;20037;-61
2024/01/15 08:14:19;;;;;;;18.70;10.95;;;4.40;80.00;;;;;;5030132;28;20119;-61
2024/01/15 08:16:46;;;;;;;17.13;10.88;;;4.40;79.90;;;;;;5011625;28;20110;-61
2024/01/15 08:19:16;;;;;;;18.15;11.25;;;4.30;80.00;;;;;;5027257;28;20048;-61
2024/01/15 08:21:43;;;;;;;16.13;11.25;;;4.40;80.00;;;;;;5028199;28;20045;-61
2024/01/15 08:24:10;;;;;;;16.90;11.20;;;4.40;80.00;;;;;;5029669;28;20030;-60
2024/01/15 08:26:37;;;;;;;18.70;11.57;;;4.40;80.70;;;;;;5021785;28;20115;-61
2024/01/15 08:29:04;;;;;;;16.73;11.18;;;4.30;79.90;;;;;;5018534;28;20034;-61
2024/01/15 08:31:30;;;;;;;18.58;11.93;;;4.40;80.00;;;;;;5016991;28;20056;-58
2024/01/15 08:33:59;;;;;;;19.05;13.90;;;4.30;80.00;;;;;;5020000;28;20096;-58
2024/01/15 08:36:26;;;;;;;21.23;14.55;;;4.40;80.00;;;;;;5026788;28;20049;-58
2024/01/15 08:38:52;;;;;;;20.30;14.80;;;4.30;79.90;;;;;;5026641;28;20492;-58
2024/01/15 08:41:19;;;;;;;21.92;16.30;;;4.30;79.90;;;;;;5020382;28;20076;-58
2024/01/15 08:43:46;;;;;;;22.75;16.55;;;4.30;80.00;;;;;;5029490;28;20076;-58
2024/01/15 08:46:13;;;;;;;18.65;14.13;;;4.30;80.10;;;;;;5005720;28;20721;-58
2024/01/15 08:48:40;;;;;;;15.98;11.85;;;4.30;80.00;;;;;;5022764;28;20042;-58
2024/01/15 08:51:08;;;;;;;14.43;10.65;;;4.30;80.00;;;;;;5021060;28;20034;-58
2024/01/15 08:53:37;;;;;;;12.98;9.15;;;4.30;80.10;;;;;;5025107;28;20132;-57
2024/01/15 08:56:05;;;;;;;12.52;9.45;;;4.30;80.20;;;;;;5003177;28;20069;-57
2024/01/15 08:58:32;;;;;;;9.80;8.45;;;4.30;80.30;;;;;;5025769;28;20064;-56
2024/01/15 09:00:59;;;;;;;10.80;8.15;;;4.30;80.40;;;;;;5021392;28;20103;-58
2024/01/15 09:03:26;;;;;;;11.48;7.95;;;4.30;80.60;;;;;;5032131;28;20480;-59
2024/01/15 09:05:54;;;;;;;8.90;7.10;;;4.30;80.60;;;;;;5026741;28;20045;-59
2024/01/15 09:08:21;;;;;;;10.77;7.28;;;4.30;80.70;;;;;;5012011;28;20046;-59
2024/01/15 09:10:47;;;;;;;8.80;6.55;;;4.40;80.80;;;;;;5026130;28;20096;-60
2024/01/15 09:13:14;;;;;;;11.05;7.20;;;4.40;80.80;;;;;;5029855;28;20095;-60
2024/01/15 09:15:44;;;;;;;7.60;5.47;;;4.40;80.80;;;;;;5029829;28;20072;-60
2024/01/15 09:18:10;;;;;;;7.47;5.60;;;4.40;80.70;;;;;;5009892;28;20037;-60
2024/01/15 09:20:38;;;;;;;5.88;4.85;;;4.50;81.30;;;;;;5028328;28;20050;-59
2024/01/15 09:23:05;;;;;;;5.72;4.88;;;4.50;80.50;;;;;;5024279;28;20038;-60
2024/01/15 09:25:32;;;;;;;5.75;4.35;;;4.50;80.40;;;;;;5022456;28;20116;-60
2024/01/15 09:27:59;;;;;;;6.00;4.75;;;4.50;80.40;;;;;;5029622;28;20047;-60
2024/01/15 09:30:26;;;;;;;4.05;3.53;;;4.50;80.30;;;;;;5026893;28;20037;-60
2024/01/15 09:32:52;;;;;;;4.60;2.92;;;4.50;80.10;;;;;;5030921;28;20053;-60
2024/01/15 09:35:19;;;;;;;3.85;3.35;;;4.50;80.10;;;;;;5028776;28;20033;-60
2024/01/15 09:37:49;;;;;;;4.07;2.80;;;4.70;80.10;;;;;;5028427;28;20038;-60
2024/01/15 09:40:17;;;;;;;4.22;3.08;;;4.50;80.10;;;;;;5025812;28;20573;-60
2024/01/15 09:42:45;;;;;;;4.53;3.58;;;4.50;80.40;;;;;;5030126;28;20176;-60
2024/01/15 09:45:13;;;;;;;3.67;2.88;;;4.50;80.40;;;;;;5018109;28;20133;-60
2024/01/15 09:47:41;;;;;;;4.10;3.15;;;4.50;80.40;;;;;;5023786;28;20570;-60
2024/01/15 09:50:13;;;;;;;4.07;3.30;;;4.60;80.40;;;;;;5028603;28;20504;-60
2024/01/15 09:52:40;;;;;;;5.88;3.47;;;4.60;80.30;;;;;;5029613;28;20056;-60
2024/01/15 09:55:09;;;;;;;3.95;2.80;;;4.60;80.20;;;;;;5029116;28;20172;-60
2024/01/15 09:57:36;;;;;;;3.47;2.38;;;4.60;79.90;;;;;;5019429;28;20116;-60
2024/01/15 10:00:05;;;;;;;2.60;2.40;;;4.60;79.80;;;;;;5027580;28;20041;-60
2024/01/15 10:02:33;;;;;;;1.63;1.52;;;4.60;79.70;;;;;;5032323;28;20033;-61
2024/01/15 10:05:00;;;;;;;2.72;1.70;;;4.60;79.40;;;;;;5033091;28;20052;-61
2024/01/15 10:07:29;;;;;;;1.50;1.40;;;4.60;79.30;;;;;;5035359;28;20044;-60
2024/01/15 10:09:56;;;;;;;2.00;1.30;;;4.60;79.40;;;;;;5035661;28;20042;-60
2024/01/15 10:12:23;;;;;;;2.47;1.65;;;4.50;79.40;;;;;;5029345;28;20034;-60
2024/01/15 10:14:50;;;;;;;2.28;1.27;;;4.50;79.70;;;;;;5032151;28;20053;-59
2024/01/15 10:17:17;;;;;;;2.15;0.85;;;4.50;80.00;;;;;;5035192;28;20033;-60
2024/01/15 10:19:47;;;;;;;2.25;1.17;;;4.50;80.30;;;;;;5029048;28;20509;-60
2024/01/15 10:22:17;;;;;;;1.98;1.40;;;4.60;80.50;;;;;;5029979;28;20063;-60
2024/01/15 10:24:46;;;;;;;2.13;1.48;;;4.60;80.50;;;;;;5031919;28;20515;-60
2024/01/15 10:27:13;;;;;;;2.10;1.25;;;4.60;80.40;;;;;;5031620;28;20048;-60
2024/01/15 10:29:42;;;;;;;1.55;1.42;;;4.60;80.40;;;;;;5028752;28;20053;-60
2024/01/15 10:32:12;;;;;;;1.63;1.42;;;4.70;80.50;;;;;;5032297;28;20529;-59
2024/01/15 10:34:40;;;;;;;2.55;1.40;;;4.70;80.40;;;;;;5032173;28;20037;-60
2024/01/15 10:37:09;;;;;;;2.22;1.75;;;4.70;80.40;;;;;;5031474;28;20040;-60
2024/01/15 10:39:36;;;;;;;1.83;1.50;;;4.70;80.30;;;;;;5015839;28;20069;-60
2024/01/15 10:42:04;;;;;;;4.63;2.83;;;4.80;80.40;;;;;;5028397;28;20064;-60
2024/01/15 10:44:31;;;;;;;4.30;3.63;;;4.80;80.40;;;;;;5012088;28;20051;-60
2024/01/15 10:46:58;;;;;;;4.38;3.97;;;4.80;80.20;;;;;;5031336;28;20048;-61
2024/01/15 10:49:30;;;;;;;5.30;4.65;;;4.80;80.20;;;;;;5030187;28;20045;-60
2024/01/15 10:52:01;;;;;;;6.25;5.65;;;4.90;80.20;;;;;;5031710;28;20055;-60
2024/01/15 10:54:29;;;;;;;5.70;4.70;;;4.90;80.00;;;;;;5031509;28;20049;-61
2024/01/15 10:56:56;;;;;;;5.38;4.15;;;4.90;79.80;;;;;;5028912;28;20739;-60
2024/01/15 10:59:23;;;;;;;4.32;3.92;;;4.90;79.60;;;;;;5030452;28;20092;-61
2024/01/15 11:01:55;;;;;;;6.93;3.97;;;4.90;79.50;;;;;;5031292;28;20049;-61
2024/01/15 11:04:23;;;;;;;4.22;3.75;;;4.90;79.60;;;;;;5029602;28;20134;-63
2024/01/15 11:06:53;;;;;;;4.63;4.13;;;4.90;79.50;;;;;;5027479;28;20048;-62
2024/01/15 11:09:23;;;;;;;3.88;3.17;;;4.90;79.30;;;;;;5029914;28;20602;-63
2024/01/15 11:12:06;;;;;;;4.32;3.92;;;5.00;79.60;;;;;;5009765;28;20551;-63
2024/01/15 11:14:38;;;;;;;3.63;3.30;;;5.00;79.70;;;;;;5024285;28;20053;-62
2024/01/15 11:17:06;;;;;;;3.53;2.95;;;5.00;79.60;;;;;;5010642;28;20121;-62
2024/01/15 11:19:37;;;;;;;3.80;3.13;;;5.00;79.40;;;;;;5026004;28;20566;-63
2024/01/15 11:22:33;;;;;;;4.70;3.30;;;5.00;79.20;;;;;;5028671;28;20134;-63
2024/01/15 11:25:13;;;;;;;4.95;4.10;;;5.00;79.00;;;;;;5026590;28;20073;-63
2024/01/15 11:27:44;;;;;;;10.35;7.22;;;5.00;79.10;;;;;;5024383;28;20051;-62
2024/01/15 11:30:12;;;;;;;9.68;7.78;;;5.00;79.50;;;;;;5005112;28;20052;-63
2024/01/15 11:32:43;;;;;;;9.07;6.93;;;5.00;79.80;;;;;;5011440;28;20107;-63
2024/01/15 11:35:11;;;;;;;11.60;8.15;;;5.10;80.00;;;;;;5020738;28;20041;-62
2024/01/15 11:37:50;;;;;;;10.65;7.85;;;5.10;79.90;;;;;;5021832;28;20129;-63
2024/01/15 11:40:21;;;;;;;9.90;7.50;;;5.10;79.70;;;;;;5022766;28;20507;-63
2024/01/15 11:42:49;;;;;;;11.35;8.43;;;5.10;79.50;;;;;;5027305;28;20659;-63
2024/01/15 11:45:19;;;;;;;10.90;8.15;;;5.20;79.50;;;;;;5025177;28;20450;-63
2024/01/15 11:48:11;;;;;;;11.68;7.65;;;5.20;79.60;;;;;;5022435;28;20045;-63
2024/01/15 11:50:46;;;;;;;;;;;5.20;79.70;;;;;;5020306;28;20048;-63
2024/01/15 11:53:36;;;;;;;8.43;6.82;;;5.30;79.70;;;;;;5021812;28;19921;-64
2024/01/15 11:56:11;;;;;;;9.25;6.63;;;5.30;79.00;;;;;;5020707;28;20038;-65
2024/01/15 11:58:38;;;;;;;8.10;5.55;;;5.20;78.90;;;;;;5023418;28;20172;-65
2024/01/15 12:01:05;;;;;;;6.45;5.65;;;5.30;79.00;;;;;;5025964;28;20470;-64
2024/01/15 12:03:33;;;;;;;5.57;4.93;;;5.20;78.90;;;;;;5029162;28;20033;-66
2024/01/15 12:06:09;;;;;;;6.28;5.28;;;5.30;79.10;;;;;;5011392;28;20124;-65
2024/01/15 12:08:39;;;;;;;7.55;5.43;;;5.30;79.20;;;;;;5026969;28;20589;-65
2024/01/15 12:11:13;;;;;;;;;;;5.30;79.30;;;;;;5024997;28;20046;-64
2024/01/15 12:13:43;;;;;;;6.78;4.57;;;5.40;79.30;;;;;;5025301;28;19925;-66
2024/01/15 12:16:10;;;;;;;5.15;3.85;;;5.40;79.40;;;;;;5029867;28;20546;-68
2024/01/15 12:18:41;;;;;;;7.63;4.28;;;5.50;79.50;;;;;;5028003;28;20445;-65
2024/01/15 12:21:10;;;;;;;5.20;4.05;;;5.50;79.40;;;;;;5029035;28;20050;-64
2024/01/15 12:23:39;;;;;;;4.60;3.08;;;5.50;79.20;;;;;;5032737;28;20164;-65
2024/01/15 12:26:06;;;;;;;5.22;3.00;;;5.60;79.00;;;;;;5028711;28;20831;-65
2024/01/15 12:28:32;;;;;;;3.97;3.22;;;5.60;78.70;;;;;;5027720;28;20531;-65
2024/01/15 12:31:00;;;;;;;4.72;2.50;;;5.60;78.40;;;;;;5029126;28;20404;-64
2024/01/15 12:33:27;;;;;;;5.45;3.15;;;5.60;78.20;;;;;;5029951;28;20041;-65
2024/01/15 12:35:56;;;;;;;3.08;2.72;;;5.60;78.00;;;;;;5029076;28;20072;-65
2024/01/15 12:38:25;;;;;;;4.93;2.95;;;5.60;78.00;;;;;;5027401;28;20068;-66
2024/01/15 12:40:52;;;;;;;6.32;2.67;;;5.60;78.10;;;;;;5024495;28;20099;-65
2024/01/15 12:43:19;;;;;;;5.05;2.65;;;5.60;78.00;;;;;;5028637;28;20038;-64
2024/01/15 12:45:46;;;;;;;4.63;2.22;;;5.60;77.90;;;;;;5029455;28;20077;-66
2024/01/15 12:48:17;;;;;;;2.25;2.05;;;5.50;78.00;;;;;;5027781;28;20065;-64
2024/01/15 12:50:45;;;;;;;3.80;2.17;;;5.50;77.90;;;;;;5028982;28;20115;-65
2024/01/15 12:53:12;;;;;;;2.80;1.95;;;5.50;78.00;;;;;;5029538;28;20052;-66